createdAt,value
2022-10-10T00:00:25.377Z,6.95
2022-10-10T00:03:29.941Z,6.43
2022-10-10T00:06:34.531Z,6.28
2022-10-10T00:09:39.070Z,7.93
2022-10-10T00:12:43.761Z,7.20
2022-10-10T00:15:48.980Z,8.48
2022-10-10T00:18:54.237Z,8.80
2022-10-10T00:21:58.794Z,10.02
2022-10-10T00:25:03.202Z,9.20
2022-10-10T00:28:07.630Z,10.57
2022-10-10T00:31:12.351Z,10.25
2022-10-10T00:34:17.000Z,10.23
2022-10-10T00:37:21.684Z,9.18
2022-10-10T00:40:26.750Z,7.45
2022-10-10T00:43:31.503Z,7.80
2022-10-10T00:46:38.643Z,8.45
2022-10-10T00:49:45.619Z,8.32
2022-10-10T00:52:51.132Z,8.38
2022-10-10T00:55:57.046Z,11.95
2022-10-10T01:02:07.879Z,9.43
2022-10-10T01:05:12.136Z,8.88
2022-10-10T01:08:17.925Z,8.25
2022-10-10T01:11:22.285Z,7.70
2022-10-10T01:14:43.298Z,6.28
2022-10-10T01:18:30.797Z,6.10
2022-10-10T01:21:43.865Z,5.53
2022-10-10T01:24:59.990Z,5.40
2022-10-10T01:31:27.346Z,5.22
2022-10-10T01:35:10.176Z,5.28
2022-10-10T01:38:39.928Z,5.00
2022-10-10T01:41:56.615Z,6.03
2022-10-10T01:45:01.078Z,5.68
2022-10-10T01:48:08.837Z,5.20
2022-10-10T01:51:47.364Z,5.53
2022-10-10T01:55:19.735Z,4.90
2022-10-10T01:58:44.035Z,4.32
2022-10-10T02:02:03.459Z,5.03
2022-10-10T02:05:20.058Z,4.32
2022-10-10T02:08:37.159Z,4.68
2022-10-10T02:11:42.303Z,4.82
2022-10-10T02:14:50.487Z,4.13
2022-10-10T02:17:58.571Z,3.80
2022-10-10T02:21:06.010Z,4.03
2022-10-10T02:24:13.587Z,4.35
2022-10-10T02:27:41.965Z,4.30
2022-10-10T02:30:51.628Z,4.00
2022-10-10T02:34:02.812Z,3.97
2022-10-10T02:37:13.475Z,3.97
2022-10-10T02:40:23.897Z,4.57
2022-10-10T02:43:28.276Z,4.85
2022-10-10T02:46:32.934Z,5.63
2022-10-10T02:49:37.544Z,4.40
2022-10-10T02:52:41.978Z,4.47
2022-10-10T02:55:46.601Z,4.90
2022-10-10T02:58:51.052Z,4.35
2022-10-10T03:01:55.717Z,4.55
2022-10-10T03:05:00.452Z,4.83
2022-10-10T03:08:09.216Z,4.07
2022-10-10T03:11:17.085Z,4.32
2022-10-10T03:14:21.448Z,5.72
2022-10-10T03:17:25.977Z,4.65
2022-10-10T03:20:30.448Z,4.78
2022-10-10T03:23:36.261Z,5.05
2022-10-10T03:26:41.094Z,4.90
2022-10-10T03:29:45.492Z,5.80
2022-10-10T03:32:50.045Z,5.40
2022-10-10T03:35:54.613Z,12.07
2022-10-10T03:38:59.045Z,4.95
2022-10-10T03:42:03.637Z,5.63
2022-10-10T03:45:11.079Z,11.82
2022-10-10T03:48:16.553Z,4.65
2022-10-10T03:51:21.502Z,4.20
2022-10-10T03:54:25.909Z,4.63
2022-10-10T03:57:30.346Z,3.63
2022-10-10T04:00:34.792Z,3.60
2022-10-10T04:03:39.303Z,4.20
2022-10-10T04:06:43.674Z,3.30
2022-10-10T04:09:48.172Z,3.75
2022-10-10T04:12:52.684Z,3.97
2022-10-10T04:15:58.288Z,4.25
2022-10-10T04:19:02.913Z,3.63
2022-10-10T04:22:10.940Z,3.33
2022-10-10T04:25:15.731Z,3.05
2022-10-10T04:28:20.414Z,3.80
2022-10-10T04:31:25.098Z,4.95
2022-10-10T04:34:29.582Z,6.05
2022-10-10T04:37:36.836Z,4.22
2022-10-10T04:40:41.086Z,4.00
2022-10-10T04:43:45.352Z,2.78
2022-10-10T04:46:49.657Z,3.33
2022-10-10T04:49:54.297Z,3.70
2022-10-10T04:52:58.610Z,3.00
2022-10-10T04:56:03.339Z,3.47
2022-10-10T04:59:07.684Z,2.60
2022-10-10T05:02:12.010Z,3.45
2022-10-10T05:05:16.464Z,4.22
2022-10-10T05:08:21.233Z,3.22
2022-10-10T05:11:25.699Z,3.33
2022-10-10T05:14:30.427Z,4.85
2022-10-10T05:17:34.894Z,2.95
2022-10-10T05:20:39.691Z,16.33
2022-10-10T05:23:44.254Z,2.60
2022-10-10T05:26:49.050Z,2.60
2022-10-10T05:29:53.835Z,2.77
2022-10-10T05:32:58.752Z,3.50
2022-10-10T05:36:11.744Z,3.60
2022-10-10T05:39:16.151Z,3.00
2022-10-10T05:42:20.439Z,3.00
2022-10-10T05:45:25.176Z,3.70
2022-10-10T05:48:29.912Z,4.65
2022-10-10T05:51:34.419Z,3.80
2022-10-10T05:54:39.584Z,3.08
2022-10-10T05:57:44.102Z,3.30
2022-10-10T06:00:49.503Z,3.20
2022-10-10T06:03:56.785Z,2.95
2022-10-10T06:07:01.162Z,5.80
2022-10-10T06:10:06.337Z,4.20
2022-10-10T06:13:12.323Z,6.22
2022-10-10T06:16:16.837Z,3.90
2022-10-10T06:19:22.245Z,3.45
2022-10-10T06:22:26.768Z,3.40
2022-10-10T06:25:43.448Z,2.83
2022-10-10T06:28:48.039Z,3.03
2022-10-10T06:31:52.538Z,3.50
2022-10-10T06:34:56.884Z,4.20
2022-10-10T06:38:01.318Z,4.57
2022-10-10T06:41:07.237Z,3.67
2022-10-10T06:44:12.462Z,3.92
2022-10-10T06:47:17.771Z,3.60
2022-10-10T06:50:22.659Z,4.18
2022-10-10T06:53:28.632Z,3.90
2022-10-10T06:56:33.206Z,3.90
2022-10-10T06:59:37.635Z,3.58
2022-10-10T07:02:42.070Z,5.82
2022-10-10T07:05:46.466Z,4.07
2022-10-10T07:08:50.865Z,3.97
2022-10-10T07:15:00.734Z,4.75
2022-10-10T07:18:07.310Z,4.40
2022-10-10T07:21:12.033Z,5.20
2022-10-10T07:24:16.436Z,5.77
2022-10-10T07:27:20.662Z,5.40
2022-10-10T07:30:27.765Z,5.90
2022-10-10T07:33:38.636Z,6.00
2022-10-10T07:36:43.137Z,4.60
2022-10-10T07:39:47.690Z,7.05
2022-10-10T07:42:52.380Z,6.80
2022-10-10T07:45:57.122Z,8.45
2022-10-10T07:49:01.644Z,9.07
2022-10-10T07:52:06.636Z,11.93
2022-10-10T07:55:12.991Z,10.88
2022-10-10T07:58:17.208Z,12.02
2022-10-10T08:01:21.819Z,13.65
2022-10-10T08:04:27.980Z,6.22
2022-10-10T08:07:36.464Z,7.47
2022-10-10T08:10:45.591Z,22.95
2022-10-10T08:13:50.535Z,33.40
2022-10-10T08:16:54.935Z,14.52
2022-10-10T08:19:59.489Z,47.17
2022-10-10T08:23:03.848Z,32.05
2022-10-10T08:26:10.893Z,23.48
2022-10-10T08:29:15.265Z,23.70
2022-10-10T08:32:19.719Z,19.55
2022-10-10T08:35:24.139Z,17.00
2022-10-10T08:38:28.713Z,6.05
2022-10-10T08:41:47.994Z,5.80
2022-10-10T08:44:58.403Z,7.13
2022-10-10T08:48:09.096Z,4.53
2022-10-10T08:51:26.047Z,4.38
2022-10-10T08:54:33.445Z,5.13
2022-10-10T08:57:55.929Z,8.70
2022-10-10T09:01:16.583Z,4.60
2022-10-10T09:04:21.455Z,5.07
2022-10-10T09:07:35.590Z,4.80
2022-10-10T09:10:56.884Z,5.07
2022-10-10T09:14:24.888Z,5.95
2022-10-10T09:17:53.151Z,5.13
2022-10-10T09:21:20.658Z,5.50
2022-10-10T09:24:36.385Z,8.95
2022-10-10T09:27:46.767Z,9.65
2022-10-10T09:30:56.508Z,10.98
2022-10-10T09:34:27.982Z,10.68
2022-10-10T09:37:48.336Z,11.50
2022-10-10T09:41:01.840Z,9.45
2022-10-10T09:44:11.998Z,14.45
2022-10-10T09:47:18.419Z,14.98
2022-10-10T09:50:24.115Z,16.25
2022-10-10T09:56:43.866Z,8.63
2022-10-10T09:59:48.618Z,8.48
2022-10-10T10:03:05.627Z,6.68
2022-10-10T10:06:15.008Z,5.63
2022-10-10T10:09:22.977Z,7.50
2022-10-10T10:12:38.584Z,5.20
2022-10-10T10:15:51.363Z,4.53
2022-10-10T10:18:55.916Z,5.63
2022-10-10T10:22:01.184Z,6.35
2022-10-10T10:25:39.693Z,6.50
2022-10-10T10:28:45.833Z,6.70
2022-10-10T10:32:02.249Z,6.70
2022-10-10T10:35:29.696Z,6.35
2022-10-10T10:39:08.592Z,7.00
2022-10-10T10:42:28.135Z,6.47
2022-10-10T10:46:10.650Z,6.03
2022-10-10T10:49:25.648Z,7.30
2022-10-10T10:52:51.987Z,7.57
2022-10-10T10:56:05.228Z,8.48
2022-10-10T11:00:20.301Z,9.13
2022-10-10T11:05:17.994Z,9.57
2022-10-10T11:07:21.299Z,10.07
2022-10-10T11:10:37.716Z,16.88
2022-10-10T11:13:50.889Z,12.63
2022-10-10T11:17:02.563Z,13.50
2022-10-10T11:20:19.519Z,12.63
2022-10-10T11:23:38.436Z,10.95
2022-10-10T11:26:51.225Z,11.73
2022-10-10T11:29:58.201Z,8.15
2022-10-10T11:33:11.311Z,7.75
2022-10-10T11:36:24.272Z,7.88
2022-10-10T11:39:41.358Z,8.07
2022-10-10T11:42:56.553Z,7.70
2022-10-10T11:47:11.514Z,8.00
2022-10-10T11:50:24.274Z,7.65
2022-10-10T11:53:47.324Z,7.30
2022-10-10T11:56:55.105Z,6.57
2022-10-10T12:00:07.679Z,5.70
2022-10-10T12:03:12.458Z,5.55
2022-10-10T12:06:37.257Z,5.37
2022-10-10T12:09:50.934Z,5.22
2022-10-10T12:12:59.512Z,5.45
2022-10-10T12:16:11.485Z,5.45
2022-10-10T12:19:25.031Z,7.43
2022-10-10T12:22:30.708Z,16.00
2022-10-10T12:29:11.515Z,18.37
2022-10-10T12:32:16.385Z,17.00
2022-10-10T12:35:39.944Z,17.67
2022-10-10T12:39:11.229Z,11.90
2022-10-10T12:42:55.486Z,9.68
2022-10-10T12:46:16.394Z,11.90
2022-10-10T12:49:28.473Z,20.67
2022-10-10T12:52:36.815Z,14.88
2022-10-10T12:56:07.013Z,19.15
2022-10-10T12:59:28.167Z,10.60
2022-10-10T13:02:32.805Z,14.18
2022-10-10T13:05:48.696Z,11.68
2022-10-10T13:08:56.666Z,8.18
2022-10-10T13:12:09.628Z,8.00
2022-10-10T13:15:22.435Z,11.65
2022-10-10T13:18:42.613Z,21.73
2022-10-10T13:21:48.051Z,18.55
2022-10-10T13:24:53.675Z,9.20
2022-10-10T13:28:00.706Z,7.70
2022-10-10T13:31:05.737Z,5.82
2022-10-10T13:34:15.469Z,9.77
2022-10-10T13:37:21.519Z,11.73
2022-10-10T13:40:28.219Z,9.13
2022-10-10T13:43:33.993Z,7.25
2022-10-10T13:49:56.632Z,12.45
2022-10-10T13:53:45.235Z,11.63
2022-10-10T13:56:49.644Z,9.77
2022-10-10T14:00:06.871Z,7.82
2022-10-10T14:03:21.343Z,21.48
2022-10-10T14:06:28.640Z,61.53
2022-10-10T14:09:40.646Z,29.23
2022-10-10T14:12:53.182Z,29.52
2022-10-10T14:16:13.188Z,25.80
2022-10-10T14:19:22.834Z,13.25
2022-10-10T14:22:28.472Z,14.85
2022-10-10T14:28:40.478Z,15.02
2022-10-10T14:31:45.001Z,14.57
2022-10-10T14:34:49.532Z,15.52
2022-10-10T14:37:53.870Z,18.45
2022-10-10T14:40:58.599Z,19.90
2022-10-10T14:44:02.930Z,20.50
2022-10-10T14:47:08.016Z,42.33
2022-10-10T14:50:21.700Z,24.63
2022-10-10T14:53:25.987Z,8.23
2022-10-10T14:57:09.528Z,8.82
2022-10-10T14:59:56.064Z,9.57
2022-10-10T15:03:00.524Z,6.53
2022-10-10T15:06:05.015Z,6.50
2022-10-10T15:09:27.799Z,5.15
2022-10-10T15:15:41.719Z,4.67
2022-10-10T15:18:54.048Z,4.93
2022-10-10T15:21:59.197Z,6.30
2022-10-10T15:25:04.397Z,3.53
2022-10-10T15:28:08.839Z,5.30
2022-10-10T15:31:13.448Z,4.30
2022-10-10T15:34:19.933Z,4.43
2022-10-10T15:37:27.788Z,3.60
2022-10-10T15:40:32.490Z,3.60
2022-10-10T15:43:55.256Z,4.43
2022-10-10T15:46:59.842Z,4.57
2022-10-10T15:50:04.264Z,3.95
2022-10-10T15:53:09.491Z,3.40
2022-10-10T15:56:17.036Z,5.13
2022-10-10T16:02:30.682Z,3.38
2022-10-10T16:05:41.135Z,4.68
2022-10-10T16:08:52.385Z,3.17
2022-10-10T16:12:00.368Z,3.50
2022-10-10T16:15:07.270Z,2.70
2022-10-10T16:18:11.895Z,2.90
2022-10-10T16:21:22.041Z,3.42
2022-10-10T16:24:26.478Z,4.10
2022-10-10T16:27:32.129Z,3.33
2022-10-10T16:30:37.185Z,3.17
2022-10-10T16:33:42.321Z,2.65
2022-10-10T16:36:46.691Z,3.00
2022-10-10T16:39:51.398Z,3.75
2022-10-10T16:42:55.768Z,2.90
2022-10-10T16:46:05.788Z,3.10
2022-10-10T16:49:12.915Z,3.20
2022-10-10T16:52:17.292Z,3.63
2022-10-10T16:55:21.728Z,3.30
2022-10-10T16:58:26.226Z,3.30
2022-10-10T17:01:30.725Z,3.28
2022-10-10T17:04:35.324Z,3.35
2022-10-10T17:07:39.837Z,3.05
2022-10-10T17:10:45.454Z,3.13
2022-10-10T17:13:50.793Z,2.90
2022-10-10T17:20:19.610Z,3.15
2022-10-10T17:23:23.844Z,2.80
2022-10-10T17:26:28.834Z,2.90
2022-10-10T17:29:33.113Z,3.00
2022-10-10T17:32:37.827Z,2.42
2022-10-10T17:35:44.103Z,2.67
2022-10-10T17:38:50.210Z,3.28
2022-10-10T17:41:54.630Z,3.33
2022-10-10T17:45:00.439Z,2.47
2022-10-10T17:48:10.069Z,2.75
2022-10-10T17:51:17.075Z,2.65
2022-10-10T17:54:21.622Z,3.05
2022-10-10T17:57:26.141Z,3.03
2022-10-10T18:00:30.791Z,2.53
2022-10-10T18:03:35.388Z,2.75
2022-10-10T18:06:39.941Z,2.25
2022-10-10T18:09:44.628Z,2.33
2022-10-10T18:12:49.142Z,1.65
2022-10-10T18:16:06.278Z,2.30
2022-10-10T18:19:12.249Z,2.58
2022-10-10T18:22:16.765Z,2.25
2022-10-10T18:25:25.083Z,1.90
2022-10-10T18:28:35.035Z,1.80
2022-10-10T18:31:40.726Z,2.10
2022-10-10T18:37:49.450Z,2.20
2022-10-10T18:41:05.888Z,1.85
2022-10-10T18:44:14.055Z,1.70
2022-10-10T18:47:19.028Z,1.52
2022-10-10T18:50:23.632Z,2.00
2022-10-10T18:53:28.211Z,1.50
2022-10-10T18:56:34.066Z,2.50
2022-10-10T19:02:42.762Z,2.00
2022-10-10T19:05:47.079Z,1.95
2022-10-10T19:08:57.076Z,5.85
2022-10-10T19:12:01.409Z,2.83
2022-10-10T19:15:06.137Z,4.78
2022-10-10T19:18:10.988Z,9.48
2022-10-10T19:21:16.898Z,38.87
2022-10-10T19:24:23.175Z,38.90
2022-10-10T19:27:27.784Z,30.48
2022-10-10T19:30:33.018Z,22.20
2022-10-10T19:33:39.952Z,13.70
2022-10-10T19:36:45.564Z,19.83
2022-10-10T19:42:54.204Z,15.10
2022-10-10T19:45:58.696Z,12.27
2022-10-10T19:49:03.323Z,12.23
2022-10-10T19:52:07.660Z,7.22
2022-10-10T19:55:12.591Z,3.53
2022-10-10T19:58:17.143Z,2.13
2022-10-10T20:01:29.347Z,2.30
2022-10-10T20:04:34.445Z,2.67
2022-10-10T20:07:39.102Z,3.10
2022-10-10T20:10:47.083Z,3.35
2022-10-10T20:13:56.302Z,7.20
2022-10-10T20:17:01.361Z,5.97
2022-10-10T20:20:06.691Z,15.77
2022-10-10T20:23:13.708Z,11.95
2022-10-10T20:26:23.161Z,17.50
2022-10-10T20:29:27.530Z,18.00
2022-10-10T20:32:33.111Z,8.35
2022-10-10T20:35:38.483Z,22.33
2022-10-10T20:38:43.675Z,11.93
2022-10-10T20:41:48.211Z,7.00
2022-10-10T20:44:52.736Z,22.27
2022-10-10T20:47:56.974Z,6.75
2022-10-10T20:51:06.762Z,8.18
2022-10-10T20:54:12.484Z,11.35
2022-10-10T21:00:24.068Z,4.90
2022-10-10T21:03:28.743Z,14.23
2022-10-10T21:06:35.344Z,8.20
2022-10-10T21:09:40.216Z,9.38
2022-10-10T21:12:45.037Z,27.20
2022-10-10T21:15:49.398Z,15.20
2022-10-10T21:18:57.969Z,62.92
2022-10-10T21:22:02.962Z,8.98
2022-10-10T21:25:08.286Z,12.45
2022-10-10T21:28:12.788Z,4.85
2022-10-10T21:31:24.142Z,3.47
2022-10-10T21:34:28.753Z,4.90
2022-10-10T21:37:35.208Z,5.10
2022-10-10T21:40:39.660Z,6.88
2022-10-10T21:43:45.469Z,4.47
2022-10-10T21:46:50.731Z,5.43
2022-10-10T21:49:55.233Z,9.77
2022-10-10T21:52:59.907Z,5.68
2022-10-10T21:56:09.411Z,7.32
2022-10-10T21:59:13.942Z,4.75
2022-10-10T22:02:18.589Z,4.90
2022-10-10T22:05:22.966Z,4.13
2022-10-10T22:08:27.422Z,4.38
2022-10-10T22:11:33.842Z,5.68
2022-10-10T22:14:38.788Z,4.07
2022-10-10T22:17:43.241Z,4.40
2022-10-10T22:20:47.684Z,4.00
2022-10-10T22:23:52.232Z,4.95
2022-10-10T22:26:56.926Z,5.20
2022-10-10T22:30:01.674Z,3.75
2022-10-10T22:33:07.256Z,4.32
2022-10-10T22:36:11.957Z,3.55
2022-10-10T22:39:16.327Z,4.32
2022-10-10T22:42:20.632Z,5.30
2022-10-10T22:45:25.169Z,4.65
2022-10-10T22:48:29.615Z,3.42
2022-10-10T22:51:34.259Z,6.30
2022-10-10T22:54:38.616Z,5.40
2022-10-10T22:57:43.127Z,4.50
2022-10-10T23:00:47.600Z,4.68
2022-10-10T23:03:56.079Z,4.90
2022-10-10T23:07:00.472Z,10.70
2022-10-10T23:10:05.893Z,5.93
2022-10-10T23:13:10.442Z,8.93
2022-10-10T23:16:15.016Z,13.90
2022-10-10T23:19:19.299Z,5.85
2022-10-10T23:22:23.870Z,11.18
2022-10-10T23:25:28.556Z,8.95
2022-10-10T23:28:33.158Z,10.55
2022-10-10T23:31:37.862Z,6.25
2022-10-10T23:34:42.135Z,8.40
2022-10-10T23:37:46.520Z,5.97
2022-10-10T23:40:50.965Z,4.50
2022-10-10T23:43:55.461Z,3.53
2022-10-10T23:47:00.977Z,4.35
2022-10-10T23:50:06.352Z,6.05
2022-10-10T23:53:10.776Z,5.30
2022-10-10T23:56:15.122Z,6.90
2022-10-10T23:59:19.671Z,4.03
